Coal City, West Virginia
Current Conditions -  °F | °C
As of 8:29 PM on Wednesday 26 Nov 2014 (Local Time) from KBKW Reporting Station
Overcast Overcast  
Wind Chill: 34°   Ceiling: 600
Heat Index: 34°   Visibility: 9mi
Dew Point: 32°   Wind: 0mph
Humidity: 92%   Direction: NA
Pressure: 29.97"   Gusts: NA
Location:  37.68°N, 81.21°W
Report Text: KBKW 270129Z AUTO 00000KT 9SM OVC006 01/00 A2997 RMK AO2 T00110000
Loading
Personal Weather Stations






























Interactive Weather Map New forecast layout! Learn more

10-Day Weather Forecast

Advertisements
Track Severe Weather on mobile